sensor_id;sensor_type;location;lat;lon;timestamp;pressure;altitude;pressure_sealevel;temperature;humidity
81230;BME280;70701;44.452;18.652;2023-07-22T00:02:13;98746.75;;;22.50;74.96
81230;BME280;70701;44.452;18.652;2023-07-22T00:04:39;98718.53;;;22.27;74.51
81230;BME280;70701;44.452;18.652;2023-07-22T00:07:04;98747.38;;;22.31;75.16
81230;BME280;70701;44.452;18.652;2023-07-22T00:09:33;98745.38;;;22.26;75.56
81230;BME280;70701;44.452;18.652;2023-07-22T00:11:59;98743.88;;;22.08;76.07
81230;BME280;70701;44.452;18.652;2023-07-22T00:14:25;98754.53;;;21.97;76.60
81230;BME280;70701;44.452;18.652;2023-07-22T00:16:51;98720.75;;;21.99;75.43
81230;BME280;70701;44.452;18.652;2023-07-22T00:19:17;98739.53;;;22.02;75.32
81230;BME280;70701;44.452;18.652;2023-07-22T00:21:43;98756.34;;;21.88;76.15
81230;BME280;70701;44.452;18.652;2023-07-22T00:24:09;98756.09;;;21.86;76.15
81230;BME280;70701;44.452;18.652;2023-07-22T00:26:36;98741.22;;;21.69;76.63
81230;BME280;70701;44.452;18.652;2023-07-22T00:29:02;98760.97;;;21.91;76.44
81230;BME280;70701;44.452;18.652;2023-07-22T00:31:28;98761.22;;;21.93;75.65
81230;BME280;70701;44.452;18.652;2023-07-22T00:33:54;98754.06;;;21.87;76.11
81230;BME280;70701;44.452;18.652;2023-07-22T00:36:19;98760.69;;;22.01;75.76
81230;BME280;70701;44.452;18.652;2023-07-22T00:38:45;98764.63;;;21.81;76.85
81230;BME280;70701;44.452;18.652;2023-07-22T00:41:11;98776.94;;;22.00;75.82
81230;BME280;70701;44.452;18.652;2023-07-22T00:43:37;98778.69;;;22.03;75.30
81230;BME280;70701;44.452;18.652;2023-07-22T00:46:04;98777.66;;;22.12;74.76
81230;BME280;70701;44.452;18.652;2023-07-22T00:48:30;98790.88;;;21.98;74.84
81230;BME280;70701;44.452;18.652;2023-07-22T00:50:56;98802.75;;;21.91;75.82
81230;BME280;70701;44.452;18.652;2023-07-22T00:53:22;98794.56;;;21.70;75.99
81230;BME280;70701;44.452;18.652;2023-07-22T00:55:48;98832.72;;;21.47;77.46
81230;BME280;70701;44.452;18.652;2023-07-22T00:58:15;98848.94;;;21.58;77.23
81230;BME280;70701;44.452;18.652;2023-07-22T01:00:41;98847.66;;;21.42;78.07
81230;BME280;70701;44.452;18.652;2023-07-22T01:03:07;98845.09;;;21.38;78.05
81230;BME280;70701;44.452;18.652;2023-07-22T01:05:34;98854.84;;;21.26;79.03
81230;BME280;70701;44.452;18.652;2023-07-22T01:08:00;98852.66;;;20.53;82.07
81230;BME280;70701;44.452;18.652;2023-07-22T01:10:26;98862.84;;;21.10;80.49
81230;BME280;70701;44.452;18.652;2023-07-22T01:12:51;98880.00;;;20.62;82.04
81230;BME280;70701;44.452;18.652;2023-07-22T01:15:17;98886.34;;;20.51;82.07
81230;BME280;70701;44.452;18.652;2023-07-22T01:17:43;98898.41;;;20.46;82.77
81230;BME280;70701;44.452;18.652;2023-07-22T01:20:10;98904.56;;;20.33;82.97
81230;BME280;70701;44.452;18.652;2023-07-22T01:22:36;98864.03;;;20.04;82.84
81230;BME280;70701;44.452;18.652;2023-07-22T01:25:03;98897.19;;;20.58;82.27
81230;BME280;70701;44.452;18.652;2023-07-22T01:27:29;98897.75;;;20.62;82.15
81230;BME280;70701;44.452;18.652;2023-07-22T01:29:55;98882.16;;;20.24;82.62
81230;BME280;70701;44.452;18.652;2023-07-22T01:32:21;98920.44;;;20.25;83.37
81230;BME280;70701;44.452;18.652;2023-07-22T01:34:47;98924.81;;;20.26;83.74
81230;BME280;70701;44.452;18.652;2023-07-22T01:37:12;98924.53;;;20.18;83.97
81230;BME280;70701;44.452;18.652;2023-07-22T01:39:38;98913.72;;;20.71;82.46
81230;BME280;70701;44.452;18.652;2023-07-22T01:42:04;98923.97;;;20.63;82.13
81230;BME280;70701;44.452;18.652;2023-07-22T01:44:30;98951.78;;;20.21;83.66
81230;BME280;70701;44.452;18.652;2023-07-22T01:46:56;98980.78;;;20.53;83.23
81230;BME280;70701;44.452;18.652;2023-07-22T01:49:22;98981.72;;;20.39;83.42
81230;BME280;70701;44.452;18.652;2023-07-22T01:51:50;98966.38;;;20.14;84.22
81230;BME280;70701;44.452;18.652;2023-07-22T01:54:15;98990.00;;;20.48;83.51
81230;BME280;70701;44.452;18.652;2023-07-22T01:56:41;98987.31;;;20.71;82.88
81230;BME280;70701;44.452;18.652;2023-07-22T01:59:07;98969.47;;;21.25;80.61
81230;BME280;70701;44.452;18.652;2023-07-22T02:01:32;98975.69;;;21.51;79.21
81230;BME280;70701;44.452;18.652;2023-07-22T02:03:58;98952.97;;;21.29;79.88
81230;BME280;70701;44.452;18.652;2023-07-22T02:06:24;98986.78;;;21.55;79.44
81230;BME280;70701;44.452;18.652;2023-07-22T02:08:50;98970.53;;;21.50;79.09
81230;BME280;70701;44.452;18.652;2023-07-22T02:11:16;98965.38;;;21.71;78.68
81230;BME280;70701;44.452;18.652;2023-07-22T02:13:41;98971.56;;;21.86;77.39
81230;BME280;70701;44.452;18.652;2023-07-22T02:16:07;99001.38;;;21.25;79.75
81230;BME280;70701;44.452;18.652;2023-07-22T02:18:37;99010.88;;;21.11;80.90
81230;BME280;70701;44.452;18.652;2023-07-22T02:21:03;98985.44;;;21.39;80.11
81230;BME280;70701;44.452;18.652;2023-07-22T02:23:28;98969.00;;;21.66;79.01
81230;BME280;70701;44.452;18.652;2023-07-22T02:25:54;98989.09;;;21.62;78.79
81230;BME280;70701;44.452;18.652;2023-07-22T02:28:21;99011.66;;;21.17;81.83
81230;BME280;70701;44.452;18.652;2023-07-22T02:30:49;99014.34;;;21.60;79.55
81230;BME280;70701;44.452;18.652;2023-07-22T02:33:15;98986.78;;;21.61;79.30
81230;BME280;70701;44.452;18.652;2023-07-22T02:35:42;98927.16;;;22.34;76.48
81230;BME280;70701;44.452;18.652;2023-07-22T02:38:07;98888.09;;;22.57;75.55
81230;BME280;70701;44.452;18.652;2023-07-22T02:40:37;98869.56;;;22.50;75.35
81230;BME280;70701;44.452;18.652;2023-07-22T02:43:03;98845.13;;;22.36;75.58
81230;BME280;70701;44.452;18.652;2023-07-22T02:45:30;98829.94;;;22.22;76.31
81230;BME280;70701;44.452;18.652;2023-07-22T02:47:56;98840.34;;;21.97;77.65
81230;BME280;70701;44.452;18.652;2023-07-22T02:50:22;98859.19;;;21.89;78.00
81230;BME280;70701;44.452;18.652;2023-07-22T02:52:47;98890.66;;;21.17;80.46
81230;BME280;70701;44.452;18.652;2023-07-22T02:55:15;98892.19;;;21.30;80.72
81230;BME280;70701;44.452;18.652;2023-07-22T02:57:44;98871.84;;;21.65;79.12
81230;BME280;70701;44.452;18.652;2023-07-22T03:00:12;98869.50;;;21.86;77.47
81230;BME280;70701;44.452;18.652;2023-07-22T03:02:40;98849.66;;;21.86;77.56
81230;BME280;70701;44.452;18.652;2023-07-22T03:05:08;98843.19;;;21.91;77.13
81230;BME280;70701;44.452;18.652;2023-07-22T03:07:34;98845.50;;;21.99;76.94
81230;BME280;70701;44.452;18.652;2023-07-22T03:10:00;98846.25;;;22.05;76.35
81230;BME280;70701;44.452;18.652;2023-07-22T03:12:26;98833.91;;;22.02;76.23
81230;BME280;70701;44.452;18.652;2023-07-22T03:14:53;98843.22;;;21.80;76.98
81230;BME280;70701;44.452;18.652;2023-07-22T03:17:19;98844.78;;;21.87;76.83
81230;BME280;70701;44.452;18.652;2023-07-22T03:19:45;98857.66;;;21.82;77.21
81230;BME280;70701;44.452;18.652;2023-07-22T03:22:14;98850.47;;;21.70;77.23
81230;BME280;70701;44.452;18.652;2023-07-22T03:24:42;98831.97;;;21.46;77.69
81230;BME280;70701;44.452;18.652;2023-07-22T03:27:07;98851.00;;;21.40;77.99
81230;BME280;70701;44.452;18.652;2023-07-22T03:29:33;98864.91;;;21.66;77.18
81230;BME280;70701;44.452;18.652;2023-07-22T03:31:59;98863.63;;;21.62;77.60
81230;BME280;70701;44.452;18.652;2023-07-22T03:34:26;98851.00;;;21.57;77.57
81230;BME280;70701;44.452;18.652;2023-07-22T03:36:52;98845.88;;;21.50;77.16
81230;BME280;70701;44.452;18.652;2023-07-22T03:39:18;98873.94;;;21.48;77.20
81230;BME280;70701;44.452;18.652;2023-07-22T03:41:43;98851.53;;;21.50;77.31
81230;BME280;70701;44.452;18.652;2023-07-22T03:44:09;98862.09;;;21.55;77.31
81230;BME280;70701;44.452;18.652;2023-07-22T03:46:35;98858.72;;;21.45;77.49
81230;BME280;70701;44.452;18.652;2023-07-22T03:49:00;98861.53;;;21.28;77.88
81230;BME280;70701;44.452;18.652;2023-07-22T03:51:26;98869.03;;;21.26;78.27
81230;BME280;70701;44.452;18.652;2023-07-22T03:53:51;98870.84;;;21.29;78.08
81230;BME280;70701;44.452;18.652;2023-07-22T03:56:17;98861.28;;;21.38;77.87
81230;BME280;70701;44.452;18.652;2023-07-22T03:58:43;98854.88;;;21.48;77.29
81230;BME280;70701;44.452;18.652;2023-07-22T04:01:12;98829.63;;;21.33;77.31
81230;BME280;70701;44.452;18.652;2023-07-22T04:03:38;98844.03;;;21.52;76.93
81230;BME280;70701;44.452;18.652;2023-07-22T04:06:04;98851.25;;;21.65;76.37
81230;BME280;70701;44.452;18.652;2023-07-22T04:08:30;98875.22;;;21.52;77.06
81230;BME280;70701;44.452;18.652;2023-07-22T04:10:57;98885.53;;;21.44;77.07
81230;BME280;70701;44.452;18.652;2023-07-22T04:13:24;98880.63;;;21.45;76.83
81230;BME280;70701;44.452;18.652;2023-07-22T04:15:52;98889.38;;;21.30;77.42
81230;BME280;70701;44.452;18.652;2023-07-22T04:18:19;98900.69;;;21.30;77.83
81230;BME280;70701;44.452;18.652;2023-07-22T04:20:46;98906.13;;;21.45;77.23
81230;BME280;70701;44.452;18.652;2023-07-22T04:23:13;98908.22;;;21.44;77.26
81230;BME280;70701;44.452;18.652;2023-07-22T04:25:40;98901.50;;;21.47;77.27
81230;BME280;70701;44.452;18.652;2023-07-22T04:28:06;98896.59;;;21.53;76.68
81230;BME280;70701;44.452;18.652;2023-07-22T04:30:32;98885.50;;;21.39;76.01
81230;BME280;70701;44.452;18.652;2023-07-22T04:32:58;98902.03;;;21.51;76.76
81230;BME280;70701;44.452;18.652;2023-07-22T04:35:24;98889.63;;;21.66;76.18
81230;BME280;70701;44.452;18.652;2023-07-22T04:37:49;98876.25;;;21.55;75.47
81230;BME280;70701;44.452;18.652;2023-07-22T04:40:15;98914.63;;;21.67;75.81
81230;BME280;70701;44.452;18.652;2023-07-22T04:42:44;98910.50;;;21.74;75.66
81230;BME280;70701;44.452;18.652;2023-07-22T04:45:10;98934.22;;;21.71;76.08
81230;BME280;70701;44.452;18.652;2023-07-22T04:47:37;98937.03;;;21.77;75.56
81230;BME280;70701;44.452;18.652;2023-07-22T04:50:04;98943.75;;;21.79;75.74
81230;BME280;70701;44.452;18.652;2023-07-22T04:52:34;98947.59;;;21.93;75.35
81230;BME280;70701;44.452;18.652;2023-07-22T04:55:00;98950.69;;;21.95;75.21
81230;BME280;70701;44.452;18.652;2023-07-22T04:57:25;98956.84;;;22.10;75.00
81230;BME280;70701;44.452;18.652;2023-07-22T04:59:51;98960.72;;;22.13;74.85
81230;BME280;70701;44.452;18.652;2023-07-22T05:02:17;98963.28;;;22.11;75.38
81230;BME280;70701;44.452;18.652;2023-07-22T05:04:42;98978.53;;;22.02;75.73
81230;BME280;70701;44.452;18.652;2023-07-22T05:07:08;98973.88;;;21.88;75.59
81230;BME280;70701;44.452;18.652;2023-07-22T05:09:34;98984.19;;;21.97;75.80
81230;BME280;70701;44.452;18.652;2023-07-22T05:12:00;98988.06;;;21.88;76.37
81230;BME280;70701;44.452;18.652;2023-07-22T05:14:26;99005.84;;;22.00;76.31
81230;BME280;70701;44.452;18.652;2023-07-22T05:16:52;99012.31;;;21.66;77.16
81230;BME280;70701;44.452;18.652;2023-07-22T05:19:18;99019.00;;;21.74;76.87
81230;BME280;70701;44.452;18.652;2023-07-22T05:21:45;99015.91;;;21.78;76.38
81230;BME280;70701;44.452;18.652;2023-07-22T05:24:10;99000.69;;;21.53;76.76
81230;BME280;70701;44.452;18.652;2023-07-22T05:26:36;99011.00;;;21.67;76.47
81230;BME280;70701;44.452;18.652;2023-07-22T05:29:01;99005.34;;;21.79;76.11
81230;BME280;70701;44.452;18.652;2023-07-22T05:31:27;99004.28;;;22.10;75.21
81230;BME280;70701;44.452;18.652;2023-07-22T05:33:53;99007.16;;;21.70;75.12
81230;BME280;70701;44.452;18.652;2023-07-22T05:36:21;98985.22;;;21.99;74.46
81230;BME280;70701;44.452;18.652;2023-07-22T05:38:46;99001.97;;;21.91;74.89
81230;BME280;70701;44.452;18.652;2023-07-22T05:41:13;98999.63;;;22.24;73.16
81230;BME280;70701;44.452;18.652;2023-07-22T05:43:40;98989.09;;;23.00;70.66
81230;BME280;70701;44.452;18.652;2023-07-22T05:46:05;98966.88;;;23.04;69.43
81230;BME280;70701;44.452;18.652;2023-07-22T05:48:31;98946.97;;;23.45;68.42
81230;BME280;70701;44.452;18.652;2023-07-22T05:50:57;98939.97;;;23.52;68.17
81230;BME280;70701;44.452;18.652;2023-07-22T05:53:22;98917.50;;;23.48;68.51
81230;BME280;70701;44.452;18.652;2023-07-22T05:55:48;98884.88;;;23.55;68.33
81230;BME280;70701;44.452;18.652;2023-07-22T05:58:17;98882.88;;;23.50;68.66
81230;BME280;70701;44.452;18.652;2023-07-22T06:00:43;98843.47;;;22.94;69.66
81230;BME280;70701;44.452;18.652;2023-07-22T06:03:09;98877.47;;;23.16;70.48
81230;BME280;70701;44.452;18.652;2023-07-22T06:05:35;98909.50;;;23.11;70.86
81230;BME280;70701;44.452;18.652;2023-07-22T06:08:00;98923.69;;;23.17;71.51
81230;BME280;70701;44.452;18.652;2023-07-22T06:10:26;98929.00;;;23.32;70.18
81230;BME280;70701;44.452;18.652;2023-07-22T06:12:52;98924.28;;;23.40;69.49
81230;BME280;70701;44.452;18.652;2023-07-22T06:15:18;98921.47;;;23.34;70.05
81230;BME280;70701;44.452;18.652;2023-07-22T06:17:44;98898.88;;;23.17;70.57
81230;BME280;70701;44.452;18.652;2023-07-22T06:20:10;98920.56;;;23.20;71.23
81230;BME280;70701;44.452;18.652;2023-07-22T06:22:36;98945.94;;;23.13;71.69
81230;BME280;70701;44.452;18.652;2023-07-22T06:25:01;98972.47;;;23.21;71.32
81230;BME280;70701;44.452;18.652;2023-07-22T06:27:27;98973.41;;;23.35;71.37
81230;BME280;70701;44.452;18.652;2023-07-22T06:29:53;98963.06;;;23.37;71.02
81230;BME280;70701;44.452;18.652;2023-07-22T06:32:18;98950.13;;;23.36;70.66
81230;BME280;70701;44.452;18.652;2023-07-22T06:34:44;98971.16;;;23.27;71.79
81230;BME280;70701;44.452;18.652;2023-07-22T06:37:09;98986.50;;;23.07;71.85
81230;BME280;70701;44.452;18.652;2023-07-22T06:39:35;98984.28;;;22.72;72.77
81230;BME280;70701;44.452;18.652;2023-07-22T06:42:04;98983.19;;;22.92;71.08
81230;BME280;70701;44.452;18.652;2023-07-22T06:44:30;98960.88;;;23.13;70.90
81230;BME280;70701;44.452;18.652;2023-07-22T06:46:56;98964.06;;;23.40;70.09
81230;BME280;70701;44.452;18.652;2023-07-22T06:49:22;98970.63;;;23.59;69.81
81230;BME280;70701;44.452;18.652;2023-07-22T06:51:47;98975.06;;;23.91;68.09
81230;BME280;70701;44.452;18.652;2023-07-22T06:54:13;98978.16;;;24.17;67.09
81230;BME280;70701;44.452;18.652;2023-07-22T06:56:39;98979.25;;;24.39;66.68
81230;BME280;70701;44.452;18.652;2023-07-22T06:59:05;98984.66;;;24.42;66.22
81230;BME280;70701;44.452;18.652;2023-07-22T07:01:32;98998.66;;;24.65;65.63
81230;BME280;70701;44.452;18.652;2023-07-22T07:03:59;98992.09;;;24.45;65.94
81230;BME280;70701;44.452;18.652;2023-07-22T07:06:26;98961.25;;;24.31;65.26
81230;BME280;70701;44.452;18.652;2023-07-22T07:08:51;98979.13;;;24.50;65.31
81230;BME280;70701;44.452;18.652;2023-07-22T07:11:17;98975.72;;;24.57;64.54
81230;BME280;70701;44.452;18.652;2023-07-22T07:13:43;98978.66;;;24.71;64.70
81230;BME280;70701;44.452;18.652;2023-07-22T07:16:28;98988.44;;;24.75;64.42
81230;BME280;70701;44.452;18.652;2023-07-22T07:18:57;98981.22;;;24.74;64.01
81230;BME280;70701;44.452;18.652;2023-07-22T07:21:43;98993.53;;;24.82;63.99
81230;BME280;70701;44.452;18.652;2023-07-22T07:24:09;98990.53;;;24.94;63.89
81230;BME280;70701;44.452;18.652;2023-07-22T07:26:35;98985.72;;;25.27;62.72
81230;BME280;70701;44.452;18.652;2023-07-22T07:29:01;98988.84;;;25.42;61.91
81230;BME280;70701;44.452;18.652;2023-07-22T07:31:26;98981.09;;;25.24;61.85
81230;BME280;70701;44.452;18.652;2023-07-22T07:33:53;98992.13;;;25.65;60.92
81230;BME280;70701;44.452;18.652;2023-07-22T07:36:18;98986.91;;;25.83;59.56
81230;BME280;70701;44.452;18.652;2023-07-22T07:38:44;99000.00;;;25.91;59.50
81230;BME280;70701;44.452;18.652;2023-07-22T07:41:10;99001.72;;;26.00;58.80
81230;BME280;70701;44.452;18.652;2023-07-22T07:43:40;98999.78;;;25.89;59.39
81230;BME280;70701;44.452;18.652;2023-07-22T07:46:22;99004.03;;;25.83;59.10
81230;BME280;70701;44.452;18.652;2023-07-22T07:48:50;99012.56;;;25.83;58.44
81230;BME280;70701;44.452;18.652;2023-07-22T07:51:17;99015.97;;;25.68;58.48
81230;BME280;70701;44.452;18.652;2023-07-22T07:53:44;99010.34;;;25.24;57.75
81230;BME280;70701;44.452;18.652;2023-07-22T07:56:11;99016.84;;;25.44;57.97
81230;BME280;70701;44.452;18.652;2023-07-22T07:58:37;99011.59;;;25.80;57.66
81230;BME280;70701;44.452;18.652;2023-07-22T08:01:03;99014.34;;;26.18;56.51
81230;BME280;70701;44.452;18.652;2023-07-22T08:03:34;99016.25;;;26.42;56.06
81230;BME280;70701;44.452;18.652;2023-07-22T08:06:00;99020.59;;;26.62;55.34
81230;BME280;70701;44.452;18.652;2023-07-22T08:08:27;99017.50;;;26.60;54.28
81230;BME280;70701;44.452;18.652;2023-07-22T08:11:07;99011.47;;;26.77;56.21
81230;BME280;70701;44.452;18.652;2023-07-22T08:13:37;99004.63;;;26.53;58.76
81230;BME280;70701;44.452;18.652;2023-07-22T08:16:10;99020.88;;;26.45;58.30
81230;BME280;70701;44.452;18.652;2023-07-22T08:18:36;99013.59;;;26.17;57.49
81230;BME280;70701;44.452;18.652;2023-07-22T08:21:03;99018.03;;;25.67;59.36
81230;BME280;70701;44.452;18.652;2023-07-22T08:23:30;99011.00;;;25.11;61.78
81230;BME280;70701;44.452;18.652;2023-07-22T08:25:56;99028.25;;;25.25;62.37
81230;BME280;70701;44.452;18.652;2023-07-22T08:28:22;98993.63;;;25.85;60.62
81230;BME280;70701;44.452;18.652;2023-07-22T08:30:48;99018.06;;;25.48;60.93
81230;BME280;70701;44.452;18.652;2023-07-22T08:33:15;99033.47;;;25.39;61.37
81230;BME280;70701;44.452;18.652;2023-07-22T08:35:42;99025.09;;;25.22;61.16
81230;BME280;70701;44.452;18.652;2023-07-22T08:38:08;99020.22;;;25.42;60.71
81230;BME280;70701;44.452;18.652;2023-07-22T08:40:39;99017.66;;;26.22;59.08
81230;BME280;70701;44.452;18.652;2023-07-22T08:43:07;99014.63;;;26.47;57.77
81230;BME280;70701;44.452;18.652;2023-07-22T08:45:34;99022.84;;;25.40;62.46
81230;BME280;70701;44.452;18.652;2023-07-22T08:48:08;99017.50;;;24.68;63.01
81230;BME280;70701;44.452;18.652;2023-07-22T08:50:49;99007.47;;;24.86;62.88
81230;BME280;70701;44.452;18.652;2023-07-22T08:53:17;98985.13;;;25.09;62.22
81230;BME280;70701;44.452;18.652;2023-07-22T08:55:45;99004.69;;;25.75;60.71
81230;BME280;70701;44.452;18.652;2023-07-22T08:58:14;99008.84;;;26.07;59.70
81230;BME280;70701;44.452;18.652;2023-07-22T09:00:40;99022.81;;;26.24;59.07
81230;BME280;70701;44.452;18.652;2023-07-22T09:03:06;99017.53;;;25.82;59.35
81230;BME280;70701;44.452;18.652;2023-07-22T09:05:33;99013.28;;;26.34;58.49
81230;BME280;70701;44.452;18.652;2023-07-22T09:08:04;99020.16;;;26.71;57.32
81230;BME280;70701;44.452;18.652;2023-07-22T09:10:31;99006.06;;;26.87;56.50
81230;BME280;70701;44.452;18.652;2023-07-22T09:12:59;99024.16;;;27.03;56.35
81230;BME280;70701;44.452;18.652;2023-07-22T09:15:25;99019.50;;;26.79;56.46
81230;BME280;70701;44.452;18.652;2023-07-22T09:17:51;99019.06;;;26.15;58.32
81230;BME280;70701;44.452;18.652;2023-07-22T09:20:17;99000.31;;;26.20;57.79
81230;BME280;70701;44.452;18.652;2023-07-22T09:22:44;99012.75;;;26.49;57.18
81230;BME280;70701;44.452;18.652;2023-07-22T09:25:24;99023.88;;;26.66;56.42
81230;BME280;70701;44.452;18.652;2023-07-22T09:27:57;98993.69;;;27.19;55.12
81230;BME280;70701;44.452;18.652;2023-07-22T09:30:25;99023.84;;;27.06;55.65
81230;BME280;70701;44.452;18.652;2023-07-22T09:32:56;99029.91;;;26.76;56.36
81230;BME280;70701;44.452;18.652;2023-07-22T09:35:28;99026.63;;;26.72;56.06
81230;BME280;70701;44.452;18.652;2023-07-22T09:37:54;99024.75;;;26.74;56.47
81230;BME280;70701;44.452;18.652;2023-07-22T09:40:26;99016.97;;;26.75;56.40
81230;BME280;70701;44.452;18.652;2023-07-22T09:42:54;99012.38;;;26.13;58.08
81230;BME280;70701;44.452;18.652;2023-07-22T09:45:23;99013.78;;;26.06;58.53
81230;BME280;70701;44.452;18.652;2023-07-22T09:47:50;99012.59;;;26.15;58.29
81230;BME280;70701;44.452;18.652;2023-07-22T09:50:19;99010.53;;;26.55;57.46
81230;BME280;70701;44.452;18.652;2023-07-22T09:52:46;99007.78;;;26.36;59.10
81230;BME280;70701;44.452;18.652;2023-07-22T09:55:15;99013.81;;;26.19;58.71
81230;BME280;70701;44.452;18.652;2023-07-22T09:57:47;99011.78;;;26.47;57.79
81230;BME280;70701;44.452;18.652;2023-07-22T10:00:14;99007.00;;;27.03;56.50
81230;BME280;70701;44.452;18.652;2023-07-22T10:02:41;99006.38;;;26.43;57.77
81230;BME280;70701;44.452;18.652;2023-07-22T10:05:13;99019.75;;;26.22;58.70
81230;BME280;70701;44.452;18.652;2023-07-22T10:07:47;99005.69;;;26.37;57.72
81230;BME280;70701;44.452;18.652;2023-07-22T10:10:15;99009.69;;;26.74;56.03
81230;BME280;70701;44.452;18.652;2023-07-22T10:12:42;99001.25;;;26.68;56.13
81230;BME280;70701;44.452;18.652;2023-07-22T10:15:10;99004.41;;;27.05;55.29
81230;BME280;70701;44.452;18.652;2023-07-22T10:17:36;98999.13;;;27.43;53.99
81230;BME280;70701;44.452;18.652;2023-07-22T10:20:02;98990.50;;;27.57;52.58
81230;BME280;70701;44.452;18.652;2023-07-22T10:22:37;98994.97;;;27.44;52.64
81230;BME280;70701;44.452;18.652;2023-07-22T10:25:06;98985.53;;;27.36;52.81
81230;BME280;70701;44.452;18.652;2023-07-22T10:27:34;98982.41;;;27.00;53.88
81230;BME280;70701;44.452;18.652;2023-07-22T10:30:02;98985.84;;;27.67;53.66
81230;BME280;70701;44.452;18.652;2023-07-22T10:32:49;98980.00;;;27.94;53.07
81230;BME280;70701;44.452;18.652;2023-07-22T10:38:06;98991.66;;;27.40;54.55
81230;BME280;70701;44.452;18.652;2023-07-22T10:40:32;98998.06;;;27.20;54.64
81230;BME280;70701;44.452;18.652;2023-07-22T10:43:05;98996.13;;;27.28;54.81
81230;BME280;70701;44.452;18.652;2023-07-22T10:45:32;98972.47;;;27.27;54.20
81230;BME280;70701;44.452;18.652;2023-07-22T10:48:10;98978.69;;;27.39;53.40
81230;BME280;70701;44.452;18.652;2023-07-22T10:50:52;98984.22;;;27.58;52.89
81230;BME280;70701;44.452;18.652;2023-07-22T10:56:10;98987.97;;;28.08;50.92
81230;BME280;70701;44.452;18.652;2023-07-22T11:17:10;98962.16;;;28.29;52.56
81230;BME280;70701;44.452;18.652;2023-07-22T11:19:36;98964.97;;;28.22;52.91
81230;BME280;70701;44.452;18.652;2023-07-22T11:22:03;98969.94;;;28.21;52.49
81230;BME280;70701;44.452;18.652;2023-07-22T11:24:29;98964.59;;;28.25;52.41
81230;BME280;70701;44.452;18.652;2023-07-22T11:26:55;98970.00;;;28.08;53.25
81230;BME280;70701;44.452;18.652;2023-07-22T11:29:21;98962.41;;;28.10;52.76
81230;BME280;70701;44.452;18.652;2023-07-22T11:31:48;98959.09;;;28.27;52.41
81230;BME280;70701;44.452;18.652;2023-07-22T11:34:16;98966.63;;;28.17;52.11
81230;BME280;70701;44.452;18.652;2023-07-22T11:36:42;98965.97;;;28.32;52.40
81230;BME280;70701;44.452;18.652;2023-07-22T11:39:11;98976.25;;;27.99;52.82
81230;BME280;70701;44.452;18.652;2023-07-22T11:41:40;98982.94;;;28.01;53.12
81230;BME280;70701;44.452;18.652;2023-07-22T11:44:11;98972.84;;;27.66;53.80
81230;BME280;70701;44.452;18.652;2023-07-22T11:49:27;98963.38;;;27.71;53.63
81230;BME280;70701;44.452;18.652;2023-07-22T11:52:04;98971.81;;;28.19;52.96
81230;BME280;70701;44.452;18.652;2023-07-22T11:54:32;98961.44;;;28.37;52.14
81230;BME280;70701;44.452;18.652;2023-07-22T11:57:17;98966.88;;;28.84;50.40
81230;BME280;70701;44.452;18.652;2023-07-22T11:59:45;98961.97;;;29.00;49.35
81230;BME280;70701;44.452;18.652;2023-07-22T12:02:15;98956.56;;;28.53;49.83
81230;BME280;70701;44.452;18.652;2023-07-22T12:04:43;98948.38;;;28.57;50.48
81230;BME280;70701;44.452;18.652;2023-07-22T12:07:25;98949.13;;;28.94;50.97
81230;BME280;70701;44.452;18.652;2023-07-22T12:09:56;98953.09;;;28.46;52.04
81230;BME280;70701;44.452;18.652;2023-07-22T12:12:35;98947.50;;;28.41;51.43
81230;BME280;70701;44.452;18.652;2023-07-22T12:17:30;98940.19;;;29.05;50.50
81230;BME280;70701;44.452;18.652;2023-07-22T12:19:55;98936.38;;;29.10;50.46
81230;BME280;70701;44.452;18.652;2023-07-22T12:22:21;98926.13;;;29.22;50.05
81230;BME280;70701;44.452;18.652;2023-07-22T12:24:47;98927.22;;;29.12;50.40
81230;BME280;70701;44.452;18.652;2023-07-22T12:27:13;98930.53;;;28.79;50.65
81230;BME280;70701;44.452;18.652;2023-07-22T12:29:39;98929.53;;;28.69;51.19
81230;BME280;70701;44.452;18.652;2023-07-22T12:32:05;98923.06;;;28.68;51.54
81230;BME280;70701;44.452;18.652;2023-07-22T12:34:31;98923.19;;;29.07;50.39
81230;BME280;70701;44.452;18.652;2023-07-22T12:36:56;98916.50;;;29.12;50.76
81230;BME280;70701;44.452;18.652;2023-07-22T12:39:22;98915.81;;;29.35;48.99
81230;BME280;70701;44.452;18.652;2023-07-22T12:41:47;98915.22;;;29.13;50.18
81230;BME280;70701;44.452;18.652;2023-07-22T12:44:13;98909.81;;;29.10;50.50
81230;BME280;70701;44.452;18.652;2023-07-22T12:46:39;98917.38;;;28.84;51.79
81230;BME280;70701;44.452;18.652;2023-07-22T12:49:04;98912.16;;;28.67;52.26
81230;BME280;70701;44.452;18.652;2023-07-22T12:51:31;98920.47;;;28.49;52.79
81230;BME280;70701;44.452;18.652;2023-07-22T12:53:56;98916.38;;;28.37;53.31
81230;BME280;70701;44.452;18.652;2023-07-22T12:56:23;98909.91;;;28.81;52.08
81230;BME280;70701;44.452;18.652;2023-07-22T12:58:48;98890.84;;;28.91;51.86
81230;BME280;70701;44.452;18.652;2023-07-22T13:01:14;98902.13;;;28.97;50.87
81230;BME280;70701;44.452;18.652;2023-07-22T13:03:40;98902.91;;;28.97;51.21
81230;BME280;70701;44.452;18.652;2023-07-22T13:06:06;98895.56;;;29.33;49.86
81230;BME280;70701;44.452;18.652;2023-07-22T13:08:31;98888.53;;;28.89;50.77
81230;BME280;70701;44.452;18.652;2023-07-22T13:10:57;98892.50;;;28.79;51.11
81230;BME280;70701;44.452;18.652;2023-07-22T13:13:23;98881.41;;;28.67;51.65
81230;BME280;70701;44.452;18.652;2023-07-22T13:15:50;98887.19;;;28.83;51.38
81230;BME280;70701;44.452;18.652;2023-07-22T13:18:15;98887.50;;;29.16;51.36
81230;BME280;70701;44.452;18.652;2023-07-22T13:20:42;98884.00;;;29.02;51.88